Time;durP1;ratioP1;P1;durP2;ratioP2;P2;SDS_P1;SDS_P2;PMS_P1;PMS_P2;Temp;Humidity;BMP_temperature;BMP_pressure;BME280_temperature;BME280_humidity;BME280_pressure;Samples;Min_cycle;Max_cycle;Signal;HPM_P1;HPM_P2
2021/09/27 00:00:38;;;;;;;11.90;8.80;;;17.60;90.90;;;;;;5012596;28;20048;-79
2021/09/27 00:03:05;;;;;;;11.85;9.57;;;17.60;90.90;;;;;;5012774;28;20025;-78
2021/09/27 00:05:31;;;;;;;11.25;9.48;;;17.50;91.00;;;;;;5012649;28;20378;-78
2021/09/27 00:07:57;;;;;;;16.67;13.32;;;17.50;91.00;;;;;;5013072;28;20105;-78
2021/09/27 00:10:28;;;;;;;13.30;10.05;;;17.50;91.20;;;;;;5012735;28;20068;-78
2021/09/27 00:12:54;;;;;;;12.07;9.15;;;17.50;91.20;;;;;;5012546;28;20030;-78
2021/09/27 00:15:27;;;;;;;13.10;8.32;;;17.40;91.20;;;;;;5012600;28;20018;-79
2021/09/27 00:17:53;;;;;;;12.25;10.10;;;17.40;91.10;;;;;;5013931;28;20026;-78
2021/09/27 00:20:20;;;;;;;11.65;8.25;;;17.40;91.10;;;;;;5027959;28;20488;-78
2021/09/27 00:22:48;;;;;;;16.05;11.98;;;17.40;91.20;;;;;;5024746;28;20026;-78
2021/09/27 00:25:16;;;;;;;15.15;10.20;;;17.30;91.20;;;;;;5024871;28;20026;-78
2021/09/27 00:27:42;;;;;;;12.65;9.77;;;17.40;91.20;;;;;;5027989;28;20029;-80
2021/09/27 00:30:08;;;;;;;12.60;9.32;;;17.40;91.20;;;;;;5016026;28;20030;-79
2021/09/27 00:32:34;;;;;;;11.15;9.05;;;17.40;91.20;;;;;;5012936;28;20474;-79
2021/09/27 00:35:00;;;;;;;12.15;9.27;;;17.40;91.20;;;;;;5013593;28;20184;-79
2021/09/27 00:37:26;;;;;;;10.68;8.18;;;17.40;91.30;;;;;;5012054;28;20180;-79
2021/09/27 00:39:51;;;;;;;12.40;9.45;;;17.30;91.30;;;;;;5013812;28;20052;-79
2021/09/27 00:42:17;;;;;;;14.75;10.75;;;17.30;91.30;;;;;;5012174;28;20104;-79
2021/09/27 00:44:43;;;;;;;15.88;11.15;;;17.30;91.30;;;;;;5012205;28;20447;-79
2021/09/27 00:47:09;;;;;;;12.32;9.50;;;17.30;91.40;;;;;;5012606;28;20568;-79
2021/09/27 00:49:34;;;;;;;12.50;9.77;;;17.20;91.40;;;;;;5012959;28;20482;-79
2021/09/27 00:52:00;;;;;;;16.08;11.75;;;17.20;91.50;;;;;;5017715;28;20026;-79
2021/09/27 00:54:32;;;;;;;15.68;11.48;;;17.20;91.60;;;;;;5021051;28;20378;-78
2021/09/27 00:57:04;;;;;;;15.10;11.68;;;17.20;91.60;;;;;;5028766;28;20029;-79
2021/09/27 00:59:31;;;;;;;15.45;11.32;;;17.10;91.60;;;;;;5016385;28;20068;-78
2021/09/27 01:01:56;;;;;;;13.02;10.85;;;17.10;91.70;;;;;;5016592;28;20124;-78
2021/09/27 01:04:22;;;;;;;11.02;9.07;;;17.10;91.70;;;;;;5016991;28;20042;-79
2021/09/27 01:07:35;;;;;;;15.88;11.40;;;17.10;91.60;;;;;;5015650;28;20033;-79
2021/09/27 01:10:12;;;;;;;13.80;9.95;;;17.10;91.60;;;;;;5012854;28;20045;-78
2021/09/27 01:13:00;;;;;;;15.90;9.27;;;17.00;91.50;;;;;;5015249;28;20087;-78
2021/09/27 01:16:03;;;;;;;14.27;10.00;;;17.10;91.70;;;;;;5015318;28;20022;-78
2021/09/27 01:18:45;;;;;;;12.07;9.07;;;17.00;91.80;;;;;;5016749;28;20026;-78
2021/09/27 01:21:22;;;;;;;12.55;9.52;;;17.00;91.60;;;;;;5016784;28;20026;-79
2021/09/27 01:24:14;;;;;;;15.38;12.45;;;17.00;91.70;;;;;;5016864;28;20022;-79
2021/09/27 01:26:45;;;;;;;16.00;10.45;;;17.00;91.80;;;;;;5015416;28;20033;-78
2021/09/27 01:29:20;;;;;;;14.55;10.57;;;17.00;91.80;;;;;;5014447;28;20025;-78
2021/09/27 01:32:06;;;;;;;15.23;9.57;;;16.90;91.80;;;;;;5015725;28;20036;-78
2021/09/27 01:34:37;;;;;;;14.10;10.90;;;16.90;91.80;;;;;;5014468;28;20459;-79
2021/09/27 01:37:36;;;;;;;13.30;10.20;;;16.90;91.90;;;;;;5015220;28;20017;-78
2021/09/27 01:40:18;;;;;;;11.13;8.00;;;16.90;91.90;;;;;;5014656;28;20080;-78
2021/09/27 01:43:00;;;;;;;14.82;9.77;;;16.90;91.90;;;;;;5015124;28;20053;-79
2021/09/27 01:45:43;;;;;;;12.68;8.50;;;16.80;91.90;;;;;;5014890;28;20026;-77
2021/09/27 01:48:21;;;;;;;12.25;9.38;;;16.80;91.90;;;;;;5014323;28;20116;-78
2021/09/27 01:51:00;;;;;;;15.48;11.13;;;16.80;91.90;;;;;;5014422;28;20544;-79
2021/09/27 01:53:29;;;;;;;14.02;11.07;;;16.80;92.00;;;;;;5014347;28;20076;-78
2021/09/27 01:56:16;;;;;;;14.00;10.52;;;16.80;91.90;;;;;;5014386;28;20471;-78
2021/09/27 01:59:23;;;;;;;11.52;8.32;;;16.80;92.00;;;;;;5014535;28;20497;-79
2021/09/27 02:02:21;;;;;;;12.43;8.45;;;16.70;92.00;;;;;;4998948;28;20025;-78
2021/09/27 02:04:49;;;;;;;12.65;9.35;;;16.70;92.00;;;;;;5014208;28;20034;-79
2021/09/27 02:07:18;;;;;;;11.68;8.88;;;16.70;92.00;;;;;;5014523;28;20025;-79
2021/09/27 02:10:04;;;;;;;14.05;9.75;;;16.70;92.00;;;;;;5015048;28;20083;-78
2021/09/27 02:12:36;;;;;;;16.95;10.25;;;16.70;92.10;;;;;;5016363;28;20103;-77
2021/09/27 02:15:09;;;;;;;13.25;10.38;;;16.70;92.10;;;;;;5027038;28;20060;-77
2021/09/27 02:17:43;;;;;;;13.07;10.20;;;16.70;92.10;;;;;;5028643;28;20056;-77
2021/09/27 02:20:24;;;;;;;13.18;9.85;;;16.70;92.20;;;;;;5035522;28;20030;-77
2021/09/27 02:23:10;;;;;;;12.15;9.68;;;16.70;92.20;;;;;;5026023;28;20036;-77
2021/09/27 02:25:37;;;;;;;14.68;11.32;;;16.70;92.20;;;;;;5027942;28;20022;-77
2021/09/27 02:28:13;;;;;;;16.38;11.38;;;16.60;92.20;;;;;;5022851;28;20022;-78
2021/09/27 02:30:47;;;;;;;13.32;9.27;;;16.70;92.20;;;;;;5014667;28;20022;-78
2021/09/27 02:33:17;;;;;;;16.77;11.98;;;16.60;92.20;;;;;;5013433;28;20022;-79
2021/09/27 02:35:45;;;;;;;;;;;16.60;92.20;;;;;;5015680;28;20378;-78
2021/09/27 02:38:15;;;;;;;14.00;10.80;;;16.60;92.30;;;;;;5013714;28;19905;-78
2021/09/27 02:40:49;;;;;;;15.88;10.55;;;16.60;92.20;;;;;;5014567;28;20022;-78
2021/09/27 02:43:15;;;;;;;13.63;10.18;;;16.60;92.30;;;;;;5014324;28;20402;-78
2021/09/27 02:45:44;;;;;;;18.65;13.13;;;16.60;92.20;;;;;;5014105;28;20033;-78
2021/09/27 02:48:19;;;;;;;15.20;12.40;;;16.60;92.40;;;;;;5014289;28;20419;-77
2021/09/27 02:50:50;;;;;;;15.70;10.23;;;16.60;92.50;;;;;;5014571;28;20032;-78
2021/09/27 02:53:16;;;;;;;13.55;10.38;;;16.60;92.50;;;;;;5015636;28;20030;-79
2021/09/27 02:56:00;;;;;;;13.93;9.82;;;16.60;92.50;;;;;;5014771;28;20038;-78
2021/09/27 02:58:39;;;;;;;11.98;9.45;;;16.60;92.60;;;;;;5014220;28;20482;-78
2021/09/27 03:01:14;;;;;;;14.77;10.88;;;16.50;92.60;;;;;;5021332;28;20513;-78
2021/09/27 03:03:59;;;;;;;13.77;10.65;;;16.50;92.60;;;;;;5018478;28;20030;-79
2021/09/27 03:06:39;;;;;;;12.70;9.82;;;16.50;92.60;;;;;;5012959;28;20029;-77
2021/09/27 03:09:15;;;;;;;14.93;10.75;;;16.50;92.50;;;;;;5012756;28;20101;-79
2021/09/27 03:12:09;;;;;;;12.15;9.32;;;16.50;92.50;;;;;;5012876;28;20034;-78
2021/09/27 03:15:13;;;;;;;14.23;11.45;;;16.50;92.60;;;;;;5013464;28;20490;-78
2021/09/27 03:18:01;;;;;;;14.00;9.80;;;16.50;92.60;;;;;;5012580;28;20041;-79
2021/09/27 03:21:00;;;;;;;21.65;12.98;;;16.50;92.60;;;;;;5014005;28;20033;-78
2021/09/27 03:23:41;;;;;;;15.65;13.07;;;16.40;92.60;;;;;;5012548;28;20479;-79
2021/09/27 03:26:18;;;;;;;20.00;13.65;;;16.40;92.70;;;;;;5013753;28;20112;-79
2021/09/27 03:29:19;;;;;;;17.08;13.27;;;16.40;93.00;;;;;;5012309;28;20375;-78
2021/09/27 03:31:55;;;;;;;20.13;13.32;;;16.40;92.80;;;;;;5013518;28;20045;-79
2021/09/27 03:34:38;;;;;;;19.52;13.60;;;16.40;92.80;;;;;;5012488;28;20034;-78
2021/09/27 03:37:29;;;;;;;19.58;14.18;;;16.40;92.80;;;;;;5012829;28;20452;-79
2021/09/27 03:40:06;;;;;;;;;;;16.40;92.80;;;;;;5014270;28;20386;-77
2021/09/27 03:42:53;;;;;;;18.83;11.77;;;16.40;92.80;;;;;;5012516;28;19952;-78
2021/09/27 03:45:22;;;;;;;18.02;12.35;;;16.30;92.80;;;;;;5011967;28;20018;-79
2021/09/27 03:48:06;;;;;;;20.27;14.90;;;16.30;92.80;;;;;;5012402;28;20026;-77
2021/09/27 03:50:39;;;;;;;14.70;11.75;;;16.30;92.80;;;;;;5012100;28;20026;-78
2021/09/27 03:53:08;;;;;;;18.27;13.38;;;16.30;93.10;;;;;;5013525;28;20057;-78
2021/09/27 03:56:04;;;;;;;18.73;15.02;;;16.20;92.90;;;;;;5012710;28;20025;-78
2021/09/27 03:58:35;;;;;;;19.60;13.57;;;16.20;93.00;;;;;;5012698;28;20066;-77
2021/09/27 04:01:10;;;;;;;17.45;13.93;;;16.20;93.00;;;;;;5014807;28;20481;-79
2021/09/27 04:04:19;;;;;;;19.90;13.25;;;16.30;93.10;;;;;;5014605;28;20022;-78
2021/09/27 04:06:55;;;;;;;17.10;12.13;;;16.30;93.10;;;;;;4999902;28;20068;-78
2021/09/27 04:09:57;;;;;;;15.85;10.98;;;16.30;93.00;;;;;;5012080;28;20041;-78
2021/09/27 04:12:44;;;;;;;16.17;10.93;;;16.30;93.00;;;;;;5025353;28;20034;-77
2021/09/27 04:15:22;;;;;;;18.85;15.68;;;16.30;93.00;;;;;;5034316;28;20053;-78
2021/09/27 04:18:05;;;;;;;16.10;13.40;;;16.40;93.00;;;;;;5021821;28;20131;-79
2021/09/27 04:20:55;;;;;;;19.92;14.57;;;16.40;93.00;;;;;;5012930;28;20026;-77
2021/09/27 04:23:30;;;;;;;16.45;12.38;;;16.50;93.10;;;;;;5012499;28;20026;-78
2021/09/27 04:26:14;;;;;;;17.92;11.73;;;16.50;93.10;;;;;;5014606;28;20029;-80
2021/09/27 04:28:50;;;;;;;13.95;11.20;;;16.50;93.10;;;;;;5016592;28;20076;-78
2021/09/27 04:31:41;;;;;;;14.07;11.63;;;16.60;93.10;;;;;;5018188;28;20053;-79
2021/09/27 04:34:07;;;;;;;13.43;10.07;;;16.60;93.00;;;;;;5017357;28;20025;-78
2021/09/27 04:36:39;;;;;;;16.98;12.88;;;16.60;92.90;;;;;;5016141;28;20079;-78
2021/09/27 04:39:12;;;;;;;18.15;13.95;;;16.60;92.80;;;;;;5021117;28;20116;-78
2021/09/27 04:42:24;;;;;;;16.30;11.10;;;16.60;92.70;;;;;;5025066;28;20021;-78
2021/09/27 04:45:10;;;;;;;15.25;11.45;;;16.60;92.80;;;;;;5024868;28;20021;-79
2021/09/27 04:48:07;;;;;;;15.25;11.10;;;16.70;92.70;;;;;;5025903;28;20026;-78
2021/09/27 04:50:55;;;;;;;15.20;11.52;;;16.70;92.70;;;;;;5024739;28;20443;-79
2021/09/27 04:53:41;;;;;;;16.48;9.88;;;16.70;92.70;;;;;;5025552;28;20025;-77
2021/09/27 04:57:00;;;;;;;19.52;12.25;;;16.70;92.70;;;;;;5016516;28;20049;-79
2021/09/27 04:59:44;;;;;;;14.57;11.68;;;16.70;92.50;;;;;;4956054;28;20067;-77
2021/09/27 05:02:29;;;;;;;18.35;14.13;;;16.70;92.40;;;;;;5012268;28;20080;-79
2021/09/27 05:05:07;;;;;;;18.13;13.63;;;16.70;92.80;;;;;;5023432;28;20029;-78
2021/09/27 05:07:58;;;;;;;16.10;11.80;;;16.80;92.80;;;;;;5035772;28;20051;-77
2021/09/27 05:10:52;;;;;;;19.00;14.00;;;16.80;92.80;;;;;;5016222;28;20046;-79
2021/09/27 05:13:42;;;;;;;16.88;12.32;;;16.80;92.80;;;;;;5019995;28;20108;-77
2021/09/27 05:16:39;;;;;;;16.90;13.15;;;16.80;92.80;;;;;;5020944;28;20026;-77
2021/09/27 05:19:23;;;;;;;19.65;14.32;;;16.80;92.90;;;;;;5026210;28;20072;-79
2021/09/27 05:22:17;;;;;;;18.73;13.73;;;16.80;92.90;;;;;;5031676;28;20496;-78
2021/09/27 05:25:10;;;;;;;17.98;12.95;;;16.80;93.00;;;;;;5034095;28;20030;-78
2021/09/27 05:28:07;;;;;;;15.13;11.13;;;16.80;93.00;;;;;;5034351;28;20033;-79
2021/09/27 05:30:49;;;;;;;19.08;14.68;;;16.80;93.00;;;;;;5034735;28;20033;-77
2021/09/27 05:33:35;;;;;;;26.73;17.73;;;16.70;93.00;;;;;;5033888;28;20053;-78
2021/09/27 05:36:38;;;;;;;18.27;13.20;;;16.70;93.10;;;;;;5023922;28;20021;-78
2021/09/27 05:39:25;;;;;;;17.90;13.35;;;16.70;93.10;;;;;;5014196;28;20088;-77
2021/09/27 05:42:09;;;;;;;17.80;14.70;;;16.70;93.10;;;;;;5014959;28;20487;-78
2021/09/27 05:44:47;;;;;;;15.85;11.20;;;16.70;93.10;;;;;;5014997;28;20070;-78
2021/09/27 05:47:36;;;;;;;14.45;10.63;;;16.70;93.10;;;;;;5014259;28;20029;-78
2021/09/27 05:50:08;;;;;;;15.32;11.77;;;16.70;93.00;;;;;;5014499;28;20084;-78
2021/09/27 05:52:54;;;;;;;15.27;11.10;;;16.70;93.00;;;;;;5015082;28;20060;-79
2021/09/27 05:55:35;;;;;;;18.02;11.25;;;16.70;93.00;;;;;;5014633;28;20026;-77
2021/09/27 05:58:19;;;;;;;17.73;12.57;;;16.70;93.00;;;;;;5021085;28;20474;-78
2021/09/27 06:01:08;;;;;;;14.90;10.82;;;16.70;92.90;;;;;;5025709;28;20050;-76
2021/09/27 06:04:16;;;;;;;15.35;12.10;;;16.70;92.90;;;;;;5017227;28;20093;-78
2021/09/27 06:06:53;;;;;;;19.23;14.25;;;16.70;92.90;;;;;;5024202;28;20030;-78
2021/09/27 06:09:48;;;;;;;14.82;11.48;;;16.70;92.80;;;;;;5033850;28;20052;-77
2021/09/27 06:12:14;;;;;;;15.13;11.32;;;16.80;92.80;;;;;;5014855;28;20037;-79
2021/09/27 06:14:40;;;;;;;15.68;12.52;;;16.80;92.80;;;;;;5013323;28;20030;-79
2021/09/27 06:17:31;;;;;;;16.67;11.70;;;16.80;92.80;;;;;;5014771;28;20104;-76
2021/09/27 06:20:00;;;;;;;17.15;12.00;;;16.80;92.70;;;;;;5015646;28;20056;-78
2021/09/27 06:22:47;;;;;;;20.85;11.73;;;16.70;92.60;;;;;;5013252;28;20018;-78
2021/09/27 06:25:25;;;;;;;15.93;11.02;;;16.70;92.60;;;;;;5013562;28;20026;-78
2021/09/27 06:28:15;;;;;;;19.27;14.55;;;16.70;92.30;;;;;;5032902;28;20060;-79
2021/09/27 06:30:48;;;;;;;16.05;12.32;;;16.70;92.40;;;;;;5027782;28;20462;-78
2021/09/27 06:33:23;;;;;;;19.20;13.95;;;16.70;92.70;;;;;;5013437;28;20030;-77
2021/09/27 06:35:53;;;;;;;17.65;13.95;;;16.70;92.60;;;;;;5013523;28;20064;-77
2021/09/27 06:38:27;;;;;;;18.17;13.48;;;16.70;92.50;;;;;;5013594;28;20049;-78
2021/09/27 06:40:53;;;;;;;14.63;10.57;;;16.70;92.60;;;;;;5015336;28;20545;-78
2021/09/27 06:43:22;;;;;;;17.45;13.60;;;16.70;92.30;;;;;;5013602;28;20018;-78
2021/09/27 06:45:51;;;;;;;15.57;12.57;;;16.70;92.30;;;;;;5015961;28;20026;-78
2021/09/27 06:48:19;;;;;;;14.63;10.55;;;16.70;92.30;;;;;;5013291;28;20025;-79
2021/09/27 06:50:47;;;;;;;15.27;12.65;;;16.70;92.20;;;;;;5017792;28;20485;-77
2021/09/27 06:53:13;;;;;;;18.65;12.60;;;16.70;92.10;;;;;;5013550;28;20116;-78
2021/09/27 06:55:41;;;;;;;16.58;12.40;;;16.70;92.20;;;;;;5013497;28;20061;-76
2021/09/27 06:58:10;;;;;;;19.50;15.27;;;16.70;92.00;;;;;;5013430;28;20042;-78
2021/09/27 07:00:36;;;;;;;14.80;10.40;;;16.70;92.20;;;;;;5013887;28;20099;-77
2021/09/27 07:03:02;;;;;;;16.05;10.65;;;16.70;91.80;;;;;;5015787;28;20410;-78
2021/09/27 07:05:28;;;;;;;17.90;13.75;;;16.70;91.60;;;;;;5014915;28;20021;-77
2021/09/27 07:07:55;;;;;;;10.95;7.03;;;16.80;91.80;;;;;;5014787;28;20103;-78
2021/09/27 07:10:23;;;;;;;18.08;12.68;;;16.80;91.80;;;;;;5022141;28;20265;-77
2021/09/27 07:12:49;;;;;;;23.27;18.42;;;16.90;91.70;;;;;;5023665;28;20156;-83
2021/09/27 07:15:16;;;;;;;18.10;13.52;;;17.00;92.50;;;;;;5011153;28;20109;-77
2021/09/27 07:17:42;;;;;;;13.10;9.95;;;17.30;92.80;;;;;;5012393;28;20022;-77
2021/09/27 07:20:13;;;;;;;22.60;11.50;;;17.70;92.40;;;;;;5013817;28;20053;-77
2021/09/27 07:22:39;;;;;;;13.63;8.85;;;18.30;91.90;;;;;;5012374;28;20033;-78
2021/09/27 07:25:07;;;;;;;12.52;8.85;;;18.70;90.20;;;;;;5012509;28;20030;-78
2021/09/27 07:27:33;;;;;;;14.07;9.40;;;19.10;90.10;;;;;;5014254;28;20477;-78
2021/09/27 07:29:59;;;;;;;12.52;10.02;;;19.40;89.20;;;;;;4996500;28;20116;-77
2021/09/27 07:32:25;;;;;;;11.57;8.15;;;19.60;88.70;;;;;;5011587;28;20033;-77
2021/09/27 07:34:51;;;;;;;11.15;8.32;;;19.80;86.90;;;;;;5012038;28;20069;-78
2021/09/27 07:37:16;;;;;;;13.48;9.38;;;20.00;86.60;;;;;;5011986;28;20079;-78
2021/09/27 07:39:42;;;;;;;10.75;9.27;;;20.10;86.70;;;;;;5012078;28;20041;-77
2021/09/27 07:42:08;;;;;;;9.07;6.38;;;20.30;86.50;;;;;;5011883;28;20026;-77
2021/09/27 07:44:36;;;;;;;11.80;7.50;;;20.40;85.40;;;;;;5012457;28;20109;-79
2021/09/27 07:47:02;;;;;;;12.93;9.70;;;20.40;84.30;;;;;;5011916;28;20029;-77
2021/09/27 07:49:27;;;;;;;11.65;8.27;;;20.30;85.20;;;;;;5016825;28;20037;-78
2021/09/27 07:51:53;;;;;;;12.43;8.85;;;20.20;85.10;;;;;;5026970;28;20020;-77
2021/09/27 07:54:19;;;;;;;12.43;9.10;;;20.20;84.30;;;;;;5029293;28;20029;-77
2021/09/27 07:56:45;;;;;;;14.38;8.52;;;20.00;84.10;;;;;;5026446;28;20002;-77
2021/09/27 07:59:11;;;;;;;10.70;6.90;;;20.00;84.60;;;;;;5029115;28;20046;-78
2021/09/27 08:01:36;;;;;;;11.30;7.95;;;19.90;83.10;;;;;;5025796;28;20010;-75
2021/09/27 08:04:03;;;;;;;10.27;7.93;;;19.80;82.60;;;;;;5026302;28;20030;-77
2021/09/27 08:06:29;;;;;;;12.43;7.63;;;19.80;83.30;;;;;;5012348;28;20034;-77
2021/09/27 08:08:55;;;;;;;14.63;8.55;;;19.70;83.80;;;;;;5011475;28;20030;-77
2021/09/27 08:11:20;;;;;;;10.70;7.72;;;19.70;83.00;;;;;;5011191;28;20475;-76
2021/09/27 08:13:46;;;;;;;11.77;8.75;;;19.60;82.10;;;;;;5011108;28;20053;-77
2021/09/27 08:16:12;;;;;;;12.73;9.70;;;19.60;82.50;;;;;;5012469;28;20029;-77
2021/09/27 08:18:38;;;;;;;12.65;9.32;;;19.60;82.90;;;;;;5011491;28;20459;-76
2021/09/27 08:21:08;;;;;;;15.88;10.02;;;19.70;82.90;;;;;;5011798;28;20056;-76
2021/09/27 08:23:34;;;;;;;12.02;9.93;;;19.60;83.80;;;;;;5012142;28;20033;-77
2021/09/27 08:25:59;;;;;;;12.80;9.10;;;19.70;83.50;;;;;;5012131;28;20029;-77
2021/09/27 08:28:28;;;;;;;14.48;10.77;;;19.70;83.80;;;;;;5009909;28;20485;-77
2021/09/27 08:31:01;;;;;;;12.07;8.63;;;19.80;83.20;;;;;;5012780;28;20041;-78
2021/09/27 08:33:28;;;;;;;12.10;9.68;;;19.90;82.20;;;;;;5010537;28;20291;-77
2021/09/27 08:35:55;;;;;;;12.48;9.57;;;20.00;83.10;;;;;;5021520;28;20021;-76
2021/09/27 08:38:23;;;;;;;13.70;9.90;;;20.10;83.50;;;;;;5012463;28;20094;-76
2021/09/27 08:40:48;;;;;;;10.82;8.80;;;20.10;82.10;;;;;;5012885;28;20053;-76
2021/09/27 08:43:46;;;;;;;11.35;8.25;;;20.20;82.00;;;;;;5011319;28;20467;-78
2021/09/27 08:46:17;;;;;;;12.35;7.95;;;20.30;82.00;;;;;;4996533;28;20463;-76
2021/09/27 08:48:55;;;;;;;10.77;7.53;;;20.30;80.70;;;;;;5011217;28;20022;-76
2021/09/27 08:51:21;;;;;;;9.90;7.78;;;20.30;81.40;;;;;;5011459;28;20037;-76
2021/09/27 08:53:51;;;;;;;9.93;7.43;;;20.30;79.80;;;;;;5011341;28;20021;-76
2021/09/27 08:56:40;;;;;;;11.15;8.57;;;20.30;80.70;;;;;;5012350;28;20022;-75
2021/09/27 08:59:33;;;;;;;13.00;8.27;;;20.50;81.60;;;;;;5011085;28;20065;-75
2021/09/27 09:02:16;;;;;;;9.60;7.50;;;20.70;80.00;;;;;;4993226;28;20033;-76
2021/09/27 09:05:03;;;;;;;12.07;9.43;;;20.80;80.40;;;;;;5014233;28;20029;-76
2021/09/27 09:07:29;;;;;;;11.15;7.90;;;20.90;80.00;;;;;;5022757;28;20033;-76
2021/09/27 09:10:05;;;;;;;18.08;13.48;;;20.80;77.70;;;;;;5034396;28;20044;-77
2021/09/27 09:12:47;;;;;;;14.93;11.27;;;20.60;80.00;;;;;;5041438;28;20025;-77
2021/09/27 09:15:21;;;;;;;12.20;9.27;;;20.40;80.20;;;;;;5036297;28;20018;-77
2021/09/27 09:17:50;;;;;;;17.02;13.30;;;20.20;80.40;;;;;;5036253;28;20060;-77
2021/09/27 09:20:44;;;;;;;18.92;11.00;;;20.10;81.70;;;;;;5035008;28;20125;-77
2021/09/27 09:23:25;;;;;;;15.65;12.48;;;20.10;81.10;;;;;;5036545;28;20021;-77
2021/09/27 09:25:52;;;;;;;12.23;9.98;;;20.00;82.70;;;;;;5036270;28;20060;-76
2021/09/27 09:28:18;;;;;;;20.80;13.45;;;20.00;81.80;;;;;;5034316;28;20485;-77
2021/09/27 09:30:52;;;;;;;14.93;10.55;;;20.00;82.50;;;;;;5034298;28;20025;-77
2021/09/27 09:33:38;;;;;;;17.45;13.35;;;20.10;81.60;;;;;;5035732;28;20036;-77
2021/09/27 09:36:05;;;;;;;15.57;11.65;;;20.10;82.20;;;;;;5035472;28;20026;-76
2021/09/27 09:38:34;;;;;;;14.32;10.82;;;20.10;83.00;;;;;;5042611;28;20046;-76
2021/09/27 09:41:00;;;;;;;19.90;10.50;;;20.00;82.50;;;;;;5046997;28;20036;-76
2021/09/27 09:43:27;;;;;;;15.15;11.68;;;20.10;82.00;;;;;;5044971;28;20057;-77
2021/09/27 09:46:14;;;;;;;15.48;10.52;;;20.20;81.30;;;;;;5036529;28;20485;-76
2021/09/27 09:48:57;;;;;;;11.27;8.27;;;20.40;81.30;;;;;;5035586;28;20618;-77
2021/09/27 09:51:28;;;;;;;13.98;10.77;;;20.60;80.40;;;;;;5051967;28;20021;-76
2021/09/27 09:54:21;;;;;;;14.52;10.63;;;20.70;80.10;;;;;;5040844;28;20067;-77
2021/09/27 09:57:33;;;;;;;13.98;8.88;;;20.90;79.90;;;;;;5050128;28;20048;-77
2021/09/27 10:00:01;;;;;;;12.98;9.10;;;20.90;78.90;;;;;;5013389;28;20113;-76
2021/09/27 10:02:28;;;;;;;15.38;9.80;;;20.80;79.70;;;;;;5013448;28;20030;-76
2021/09/27 10:05:24;;;;;;;13.65;8.23;;;20.70;80.30;;;;;;5015937;28;20035;-76
2021/09/27 10:07:56;;;;;;;14.70;9.77;;;20.80;78.90;;;;;;5034187;28;20409;-76
2021/09/27 10:10:32;;;;;;;14.50;9.45;;;20.80;80.40;;;;;;5033709;28;20125;-77
2021/09/27 10:13:00;;;;;;;9.05;5.60;;;20.80;79.80;;;;;;5033901;28;20049;-77
2021/09/27 10:15:34;;;;;;;13.07;9.95;;;20.80;78.60;;;;;;5033928;28;20028;-77
2021/09/27 10:18:05;;;;;;;11.95;7.20;;;21.00;79.10;;;;;;5033871;28;20397;-77
2021/09/27 10:20:41;;;;;;;10.50;7.43;;;21.00;78.70;;;;;;5011124;28;20039;-76
2021/09/27 10:23:11;;;;;;;12.13;6.68;;;21.00;79.40;;;;;;5013118;28;20037;-77
2021/09/27 10:25:41;;;;;;;12.27;8.02;;;20.90;79.00;;;;;;5015132;28;20026;-77
2021/09/27 10:28:08;;;;;;;;;;;20.70;79.90;;;;;;5016285;28;20126;-77
2021/09/27 10:30:42;;;;;;;13.50;8.20;;;20.50;81.20;;;;;;5013726;28;20198;-77
2021/09/27 10:33:29;;;;;;;11.75;6.35;;;20.40;80.60;;;;;;5013791;28;20069;-76
2021/09/27 10:36:03;;;;;;;9.10;5.82;;;20.40;81.10;;;;;;4999524;28;20471;-77
2021/09/27 10:38:40;;;;;;;8.02;5.45;;;20.40;80.40;;;;;;5013029;28;20026;-77
2021/09/27 10:41:20;;;;;;;12.20;6.38;;;20.40;80.30;;;;;;5013425;28;20132;-77
2021/09/27 10:43:47;;;;;;;;;;;20.30;81.20;;;;;;4994377;28;20049;-77
2021/09/27 10:46:14;;;;;;;9.68;6.18;;;20.30;81.60;;;;;;5001567;28;20350;-77
2021/09/27 10:48:50;;;;;;;7.95;5.47;;;20.20;81.50;;;;;;5013168;28;20534;-76
2021/09/27 10:51:35;;;;;;;9.45;6.03;;;20.10;82.00;;;;;;5014081;28;20083;-76
2021/09/27 10:54:25;;;;;;;7.53;4.63;;;20.10;81.20;;;;;;5013078;28;20021;-77
2021/09/27 10:56:52;;;;;;;;;;;20.10;81.20;;;;;;5015315;28;20052;-76
2021/09/27 10:59:44;;;;;;;7.00;3.83;;;20.10;81.00;;;;;;5013246;28;19924;-77
2021/09/27 11:02:34;;;;;;;10.13;5.63;;;20.20;80.70;;;;;;5014589;28;20022;-77
2021/09/27 11:05:22;;;;;;;7.60;4.40;;;20.30;81.50;;;;;;5014697;28;20076;-77
2021/09/27 11:07:53;;;;;;;10.18;5.90;;;20.30;81.00;;;;;;5012939;28;20025;-76
2021/09/27 11:10:37;;;;;;;12.35;5.18;;;20.30;81.90;;;;;;5012780;28;20099;-77
2021/09/27 11:13:03;;;;;;;7.40;4.85;;;20.40;81.80;;;;;;5015064;28;20037;-78
2021/09/27 11:15:34;;;;;;;5.72;3.88;;;20.40;80.70;;;;;;5020744;28;20022;-76
2021/09/27 11:18:13;;;;;;;11.32;5.82;;;20.40;79.90;;;;;;5020732;28;20029;-76
2021/09/27 11:20:48;;;;;;;8.23;5.07;;;20.50;81.00;;;;;;5012817;28;20018;-78
2021/09/27 11:23:35;;;;;;;7.13;3.25;;;20.60;80.20;;;;;;5012939;28;20029;-77
2021/09/27 11:26:29;;;;;;;8.70;4.68;;;20.60;80.10;;;;;;5006416;28;20560;-77
2021/09/27 11:29:13;;;;;;;9.70;5.15;;;20.60;79.70;;;;;;5028820;28;20052;-77
2021/09/27 11:31:40;;;;;;;8.55;4.65;;;20.50;79.90;;;;;;5020409;28;20581;-76
2021/09/27 11:34:08;;;;;;;11.18;5.22;;;20.50;80.10;;;;;;5014123;28;20069;-76
2021/09/27 11:36:40;;;;;;;7.82;3.60;;;20.60;80.40;;;;;;5012941;28;20022;-76
2021/09/27 11:39:06;;;;;;;8.23;3.50;;;20.70;79.60;;;;;;5013625;28;20025;-77
2021/09/27 11:41:36;;;;;;;5.30;3.13;;;20.80;79.30;;;;;;5012758;28;20022;-77
2021/09/27 11:44:24;;;;;;;9.48;4.78;;;20.90;78.70;;;;;;5015118;28;20379;-78
2021/09/27 11:47:09;;;;;;;6.00;3.30;;;21.10;78.80;;;;;;5033162;28;20033;-76
2021/09/27 11:50:14;;;;;;;7.68;4.05;;;21.20;78.00;;;;;;5028583;28;20038;-76
2021/09/27 11:52:51;;;;;;;9.80;3.22;;;21.30;78.00;;;;;;4999562;28;20431;-76
2021/09/27 11:55:42;;;;;;;7.63;3.33;;;21.30;76.80;;;;;;5012064;28;20022;-76
2021/09/27 11:58:21;;;;;;;8.55;2.75;;;21.30;76.80;;;;;;5011717;28;20078;-76
2021/09/27 12:00:58;;;;;;;7.77;4.30;;;21.30;76.30;;;;;;5014613;28;20479;-77
2021/09/27 12:03:35;;;;;;;3.75;2.03;;;21.20;76.20;;;;;;5012233;28;20363;-76
2021/09/27 12:06:15;;;;;;;11.30;3.35;;;21.10;76.20;;;;;;5013934;28;20084;-76
2021/09/27 12:08:47;;;;;;;7.30;3.05;;;21.10;76.50;;;;;;5013993;28;20033;-77
2021/09/27 12:11:15;;;;;;;6.35;2.53;;;21.10;76.20;;;;;;5013400;28;20168;-77
2021/09/27 12:13:48;;;;;;;6.15;2.58;;;21.10;76.10;;;;;;5011741;28;20037;-77
2021/09/27 12:16:24;;;;;;;6.28;3.08;;;21.00;76.30;;;;;;5012182;28;20088;-77
2021/09/27 12:19:12;;;;;;;5.70;2.25;;;21.00;76.20;;;;;;5013564;28;20076;-77
2021/09/27 12:21:44;;;;;;;9.20;2.53;;;21.00;76.60;;;;;;5012515;28;20120;-77
2021/09/27 12:24:12;;;;;;;5.65;3.28;;;21.00;76.60;;;;;;5013425;28;20029;-76
2021/09/27 12:26:45;;;;;;;4.95;2.55;;;21.00;76.90;;;;;;5011930;28;20125;-76
2021/09/27 12:29:18;;;;;;;6.55;2.80;;;21.00;76.60;;;;;;5012424;28;20030;-77
2021/09/27 12:31:54;;;;;;;5.82;2.67;;;21.00;76.50;;;;;;5012858;28;20030;-77
2021/09/27 12:34:36;;;;;;;4.50;2.17;;;21.00;76.50;;;;;;5012045;28;20057;-76
2021/09/27 12:37:06;;;;;;;4.03;2.20;;;21.10;76.30;;;;;;5013594;28;20076;-77
2021/09/27 12:39:32;;;;;;;3.85;2.30;;;21.10;76.10;;;;;;5007552;28;20030;-76
2021/09/27 12:42:00;;;;;;;6.05;2.40;;;21.10;75.90;;;;;;5011691;28;20026;-77
2021/09/27 12:44:30;;;;;;;8.38;2.95;;;21.20;75.70;;;;;;5011306;28;20462;-77
2021/09/27 12:47:00;;;;;;;5.30;2.80;;;21.30;75.10;;;;;;5013606;28;20026;-77
2021/09/27 12:49:28;;;;;;;;;;;21.30;74.70;;;;;;5016431;28;20084;-77
2021/09/27 12:51:55;;;;;;;3.65;1.90;;;21.30;75.10;;;;;;5015157;28;19924;-76
2021/09/27 12:54:46;;;;;;;5.68;2.65;;;21.40;75.10;;;;;;5015147;28;20022;-76
2021/09/27 12:57:37;;;;;;;5.38;2.63;;;21.40;74.70;;;;;;5015167;28;20034;-78
2021/09/27 13:00:09;;;;;;;9.60;2.42;;;21.30;74.90;;;;;;5015200;28;20129;-76
2021/09/27 13:02:40;;;;;;;6.65;2.50;;;21.30;75.00;;;;;;5015851;28;20022;-78
2021/09/27 13:05:11;;;;;;;3.67;2.25;;;21.40;75.30;;;;;;5015796;28;20026;-77
2021/09/27 13:07:50;;;;;;;5.40;2.20;;;21.30;75.00;;;;;;5015825;28;20026;-77
2021/09/27 13:10:22;;;;;;;6.85;2.38;;;21.30;75.50;;;;;;5016771;28;20025;-78
2021/09/27 13:13:13;;;;;;;5.25;2.33;;;21.20;75.60;;;;;;5022158;28;20026;-78
2021/09/27 13:16:05;;;;;;;7.72;2.33;;;21.10;75.50;;;;;;5035962;28;20057;-76
2021/09/27 13:18:33;;;;;;;4.85;2.03;;;21.10;76.00;;;;;;5021118;28;20034;-77
2021/09/27 13:21:25;;;;;;;3.58;2.05;;;21.10;76.50;;;;;;5019874;28;20080;-78
2021/09/27 13:24:05;;;;;;;6.70;2.42;;;21.00;76.80;;;;;;5015902;28;20033;-78